Time;durP1;ratioP1;P1;durP2;ratioP2;P2;SDS_P1;SDS_P2;PMS_P1;PMS_P2;Temp;Humidity;BMP_temperature;BMP_pressure;BME280_temperature;BME280_humidity;BME280_pressure;Samples;Min_cycle;Max_cycle;Signal;HPM_P1;HPM_P2
2021/12/31 00:02:28;;;;;;;35.07;19.03;;;5.80;92.70;;;;;;5050168;28;20187;-76
2021/12/31 00:04:57;;;;;;;39.90;18.23;;;5.70;92.70;;;;;;5055891;28;20190;-76
2021/12/31 00:07:25;;;;;;;40.17;19.07;;;5.70;92.70;;;;;;5054692;28;20195;-76
2021/12/31 00:09:58;;;;;;;40.80;19.47;;;5.70;92.80;;;;;;5063376;28;20202;-76
2021/12/31 00:12:27;;;;;;;44.37;20.27;;;5.70;92.90;;;;;;5062144;28;20195;-77
2021/12/31 00:14:57;;;;;;;41.87;21.77;;;5.60;92.90;;;;;;5061772;28;20222;-76
2021/12/31 00:17:26;;;;;;;52.43;21.57;;;5.60;93.00;;;;;;5057697;28;20191;-76
2021/12/31 00:20:01;;;;;;;50.23;19.83;;;5.50;93.10;;;;;;5057279;28;20195;-76
2021/12/31 00:22:55;;;;;;;48.00;20.60;;;5.60;93.00;;;;;;5056110;28;20203;-76
2021/12/31 00:25:24;;;;;;;53.20;20.67;;;5.60;93.10;;;;;;5065284;28;20178;-75
2021/12/31 00:27:52;;;;;;;56.27;22.30;;;5.60;93.10;;;;;;5056172;28;20214;-75
2021/12/31 00:30:22;;;;;;;50.57;22.23;;;5.60;93.10;;;;;;5059976;28;20213;-76
2021/12/31 00:32:51;;;;;;;56.97;21.43;;;5.60;93.10;;;;;;5061681;28;20187;-75
2021/12/31 00:35:21;;;;;;;59.67;22.20;;;5.60;93.10;;;;;;5059264;28;20913;-76
2021/12/31 00:37:50;;;;;;;64.03;22.53;;;5.60;93.10;;;;;;5055665;28;20206;-75
2021/12/31 00:40:19;;;;;;;54.77;21.37;;;5.60;93.10;;;;;;5050069;28;20633;-76
2021/12/31 00:42:48;;;;;;;63.10;22.00;;;5.60;93.10;;;;;;5064632;28;20201;-76
2021/12/31 00:45:18;;;;;;;55.87;21.10;;;5.50;93.20;;;;;;5067989;28;20202;-75
2021/12/31 00:47:48;;;;;;;58.40;22.20;;;5.50;93.30;;;;;;5058932;28;20194;-76
2021/12/31 00:50:17;;;;;;;54.00;22.30;;;5.50;93.30;;;;;;5063776;28;20198;-75
2021/12/31 00:52:45;;;;;;;57.03;21.73;;;5.50;93.40;;;;;;5062925;28;20197;-76
2021/12/31 00:55:14;;;;;;;51.17;20.87;;;5.40;93.80;;;;;;5062152;28;20215;-76
2021/12/31 00:57:43;;;;;;;52.73;20.43;;;5.50;93.50;;;;;;5057504;28;20192;-75
2021/12/31 01:00:15;;;;;;;48.13;20.23;;;5.50;93.60;;;;;;5057434;28;20692;-75
2021/12/31 01:02:46;;;;;;;58.30;22.63;;;5.50;93.60;;;;;;5053758;28;20597;-76
2021/12/31 01:05:16;;;;;;;51.80;22.33;;;5.50;93.60;;;;;;5059655;28;20194;-76
2021/12/31 01:07:45;;;;;;;48.87;20.77;;;5.40;93.70;;;;;;5062219;28;20189;-75
2021/12/31 01:10:16;;;;;;;52.10;20.70;;;5.40;93.70;;;;;;5061949;28;20190;-75
2021/12/31 01:12:45;;;;;;;48.40;18.07;;;5.40;94.10;;;;;;5052017;28;20193;-76
2021/12/31 01:15:20;;;;;;;46.70;18.80;;;5.40;93.80;;;;;;5059175;28;20237;-76
2021/12/31 01:20:32;;;;;;;43.77;18.07;;;5.40;93.80;;;;;;5050395;28;20576;-75
2021/12/31 01:23:01;;;;;;;38.83;16.80;;;5.40;93.70;;;;;;5064091;28;20198;-76
2021/12/31 01:25:29;;;;;;;41.83;17.87;;;5.40;93.70;;;;;;5056198;28;20194;-75
2021/12/31 01:27:58;;;;;;;38.10;17.70;;;5.40;93.70;;;;;;5061254;28;20195;-77
2021/12/31 01:30:26;;;;;;;37.17;16.67;;;5.40;93.70;;;;;;5060375;28;20195;-74
2021/12/31 01:32:55;;;;;;;41.20;17.33;;;5.40;93.70;;;;;;5056735;28;20202;-75
2021/12/31 01:35:24;;;;;;;40.33;16.73;;;5.40;93.70;;;;;;5059500;28;20890;-76
2021/12/31 01:37:53;;;;;;;36.43;16.43;;;5.40;93.70;;;;;;5057936;28;20274;-76
2021/12/31 01:40:22;;;;;;;42.73;16.00;;;5.40;93.70;;;;;;5061744;28;20556;-75
2021/12/31 01:42:50;;;;;;;38.83;16.30;;;5.30;93.70;;;;;;5063357;28;20186;-75
2021/12/31 01:45:20;;;;;;;42.40;16.77;;;5.40;93.80;;;;;;5058637;28;20199;-76
2021/12/31 01:48:06;;;;;;;32.33;16.00;;;5.30;93.80;;;;;;5058716;28;20213;-75
2021/12/31 01:50:36;;;;;;;28.93;14.37;;;5.30;93.90;;;;;;5049573;28;20678;-75
2021/12/31 01:53:06;;;;;;;36.50;15.23;;;5.30;93.90;;;;;;5058621;28;20277;-76
2021/12/31 01:55:35;;;;;;;35.87;14.93;;;5.40;94.00;;;;;;5045051;28;20214;-75
2021/12/31 01:58:05;;;;;;;32.77;14.33;;;5.40;94.00;;;;;;5056563;28;20660;-76
2021/12/31 02:00:33;;;;;;;36.33;14.47;;;5.40;94.00;;;;;;5058927;28;20199;-75
2021/12/31 02:03:02;;;;;;;34.63;14.63;;;5.40;94.00;;;;;;5054866;28;20202;-76
2021/12/31 02:05:31;;;;;;;29.10;14.03;;;5.40;94.10;;;;;;5050312;28;20199;-75
2021/12/31 02:07:59;;;;;;;32.07;13.33;;;5.40;94.10;;;;;;5055389;28;20890;-76
2021/12/31 02:10:29;;;;;;;35.37;14.20;;;5.40;94.30;;;;;;5054002;28;21371;-76
2021/12/31 02:12:58;;;;;;;36.07;12.53;;;5.40;94.30;;;;;;5053211;28;20195;-74
2021/12/31 02:15:30;;;;;;;34.60;13.30;;;5.40;94.30;;;;;;5061010;28;20201;-75
2021/12/31 02:18:00;;;;;;;28.57;12.60;;;5.40;94.40;;;;;;5056817;28;20637;-74
2021/12/31 02:20:36;;;;;;;39.13;14.33;;;5.50;94.50;;;;;;5054494;28;20537;-75
2021/12/31 02:23:08;;;;;;;41.67;15.30;;;5.50;94.40;;;;;;5057281;28;20197;-76
2021/12/31 02:25:37;;;;;;;35.13;13.30;;;5.50;94.40;;;;;;5062900;28;20437;-75
2021/12/31 02:28:06;;;;;;;32.87;14.57;;;5.50;94.50;;;;;;5048818;28;20237;-74
2021/12/31 02:30:34;;;;;;;40.47;14.07;;;5.50;94.40;;;;;;5050203;28;20198;-75
2021/12/31 02:33:04;;;;;;;30.83;13.97;;;5.60;94.40;;;;;;5059065;28;20234;-75
2021/12/31 02:35:33;;;;;;;27.87;13.07;;;5.60;94.40;;;;;;5059861;28;20192;-75
2021/12/31 02:38:05;;;;;;;36.03;13.20;;;5.50;94.30;;;;;;5058176;28;20199;-75
2021/12/31 02:40:35;;;;;;;32.67;13.73;;;5.60;94.40;;;;;;5059651;28;20199;-75
2021/12/31 02:43:04;;;;;;;38.17;15.23;;;5.60;94.40;;;;;;5051241;28;20194;-74
2021/12/31 02:45:36;;;;;;;33.80;14.50;;;5.60;94.30;;;;;;5054031;28;20278;-75
2021/12/31 02:48:06;;;;;;;29.33;14.40;;;5.60;94.30;;;;;;5059428;28;20248;-75
2021/12/31 02:50:38;;;;;;;32.20;13.70;;;5.60;94.30;;;;;;5058119;28;20199;-75
2021/12/31 02:53:10;;;;;;;36.33;13.10;;;5.60;94.30;;;;;;5056273;28;20186;-75
2021/12/31 02:55:39;;;;;;;32.40;12.93;;;5.70;94.30;;;;;;5057046;28;20199;-75
2021/12/31 02:58:08;;;;;;;30.47;13.17;;;5.70;94.20;;;;;;5056783;28;20229;-75
2021/12/31 03:00:40;;;;;;;28.30;11.67;;;5.80;94.30;;;;;;5052148;28;20210;-75
2021/12/31 03:03:11;;;;;;;28.53;12.10;;;5.80;94.20;;;;;;5050310;28;20649;-75
2021/12/31 03:05:41;;;;;;;26.20;11.40;;;5.80;94.20;;;;;;5051486;28;20206;-75
2021/12/31 03:08:13;;;;;;;26.27;11.07;;;5.90;94.20;;;;;;5058143;28;20270;-75
2021/12/31 03:10:43;;;;;;;24.67;10.00;;;5.80;94.10;;;;;;5057781;28;20187;-75
2021/12/31 03:13:11;;;;;;;23.67;9.83;;;5.90;94.10;;;;;;5048450;28;20204;-75
2021/12/31 03:15:40;;;;;;;26.13;10.47;;;5.90;94.10;;;;;;5053791;28;20213;-75
2021/12/31 03:18:10;;;;;;;22.90;9.93;;;5.90;94.00;;;;;;5059459;28;20254;-75
2021/12/31 03:20:42;;;;;;;26.33;10.97;;;6.00;94.00;;;;;;5065757;28;20640;-74
2021/12/31 03:23:12;;;;;;;34.00;10.47;;;6.00;94.00;;;;;;5054130;28;20204;-74
2021/12/31 03:25:40;;;;;;;24.60;10.30;;;6.00;94.00;;;;;;5058045;28;20521;-76
2021/12/31 03:28:09;;;;;;;26.83;11.13;;;6.00;93.90;;;;;;5059051;28;20199;-75
2021/12/31 03:30:37;;;;;;;28.27;9.97;;;6.00;93.90;;;;;;5052478;28;20203;-74
2021/12/31 03:33:05;;;;;;;27.00;10.30;;;6.00;93.80;;;;;;5057236;28;20216;-75
2021/12/31 03:35:34;;;;;;;22.80;10.43;;;6.00;93.70;;;;;;5049680;28;20191;-75
2021/12/31 03:38:03;;;;;;;21.03;9.67;;;6.00;93.70;;;;;;5059256;28;20232;-75
2021/12/31 03:40:32;;;;;;;24.40;10.30;;;6.00;93.60;;;;;;5060632;28;20209;-74
2021/12/31 03:43:01;;;;;;;27.47;11.03;;;6.00;93.60;;;;;;5043472;28;20203;-76
2021/12/31 03:45:29;;;;;;;36.03;11.33;;;6.00;93.60;;;;;;5060854;28;20190;-75
2021/12/31 03:47:58;;;;;;;25.57;9.07;;;5.90;93.50;;;;;;5057260;28;20236;-74
2021/12/31 03:50:26;;;;;;;24.00;9.73;;;5.90;93.50;;;;;;5061458;28;20201;-75
2021/12/31 03:52:55;;;;;;;35.17;9.17;;;5.90;93.50;;;;;;5061989;28;20193;-75
2021/12/31 03:55:23;;;;;;;35.43;10.30;;;5.90;93.40;;;;;;5061363;28;20204;-75
2021/12/31 03:57:53;;;;;;;24.00;9.07;;;5.90;93.40;;;;;;5060934;28;20215;-74
2021/12/31 04:00:21;;;;;;;27.27;9.63;;;5.90;93.40;;;;;;5048023;28;20195;-74
2021/12/31 04:02:50;;;;;;;33.17;10.73;;;5.90;93.30;;;;;;5051793;28;20198;-75
2021/12/31 04:05:18;;;;;;;28.63;11.00;;;5.90;93.30;;;;;;5060664;28;20191;-74
2021/12/31 04:07:46;;;;;;;33.80;12.77;;;5.90;93.30;;;;;;5052310;28;20530;-75
2021/12/31 04:10:15;;;;;;;29.90;11.57;;;5.90;93.50;;;;;;5059603;28;20680;-75
2021/12/31 04:12:43;;;;;;;29.93;10.67;;;5.90;93.80;;;;;;5057049;28;20387;-74
2021/12/31 04:15:13;;;;;;;23.57;9.83;;;5.90;93.30;;;;;;5061704;28;20202;-75
2021/12/31 04:17:41;;;;;;;20.10;9.00;;;5.90;93.30;;;;;;5046576;28;20249;-75
2021/12/31 04:20:18;;;;;;;26.30;9.17;;;5.90;93.20;;;;;;5063794;28;20191;-76
2021/12/31 04:22:52;;;;;;;31.67;9.93;;;5.80;93.20;;;;;;5060068;28;20195;-75
2021/12/31 04:25:22;;;;;;;30.43;10.93;;;5.80;93.50;;;;;;5065590;28;20679;-75
2021/12/31 04:27:51;;;;;;;29.43;10.07;;;5.80;93.10;;;;;;5064243;28;20197;-74
2021/12/31 04:30:20;;;;;;;26.83;10.47;;;5.80;93.20;;;;;;5063613;28;20281;-75
2021/12/31 04:32:49;;;;;;;20.60;9.10;;;5.80;93.20;;;;;;5065519;28;20206;-74
2021/12/31 04:35:18;;;;;;;44.77;11.10;;;5.80;93.20;;;;;;5057710;28;20182;-75
2021/12/31 04:37:47;;;;;;;29.73;10.33;;;5.70;93.20;;;;;;5061258;28;20224;-75
2021/12/31 04:40:16;;;;;;;32.63;10.47;;;5.70;93.30;;;;;;5064386;28;20385;-74
2021/12/31 04:42:46;;;;;;;19.90;9.00;;;5.70;93.30;;;;;;5064285;28;20206;-74
2021/12/31 04:45:14;;;;;;;21.07;10.03;;;5.70;93.40;;;;;;5065315;28;20199;-75
2021/12/31 04:47:45;;;;;;;24.47;9.40;;;5.70;93.40;;;;;;5063178;28;20186;-75
2021/12/31 04:50:14;;;;;;;29.83;10.37;;;5.70;93.50;;;;;;5048850;28;20194;-74
2021/12/31 04:52:42;;;;;;;22.67;10.10;;;5.70;93.50;;;;;;5053248;28;20201;-74
2021/12/31 04:55:11;;;;;;;31.23;11.43;;;5.70;93.60;;;;;;5066156;28;20191;-75
2021/12/31 04:57:41;;;;;;;27.00;10.60;;;5.70;93.60;;;;;;5064042;28;20214;-74
2021/12/31 05:00:12;;;;;;;31.00;10.30;;;5.70;93.60;;;;;;5060013;28;20230;-76
2021/12/31 05:02:40;;;;;;;24.30;11.33;;;5.70;93.70;;;;;;5057088;28;20194;-74
2021/12/31 05:05:11;;;;;;;30.57;12.03;;;5.70;93.70;;;;;;5060727;28;20294;-74
2021/12/31 05:07:39;;;;;;;31.60;11.67;;;5.60;93.80;;;;;;5048407;28;20191;-74
2021/12/31 05:10:09;;;;;;;34.00;12.33;;;5.70;93.80;;;;;;5058596;28;20882;-76
2021/12/31 05:12:38;;;;;;;37.37;12.70;;;5.60;93.80;;;;;;5063708;28;20190;-74
2021/12/31 05:15:10;;;;;;;37.63;11.57;;;5.60;93.70;;;;;;5054023;28;20215;-74
2021/12/31 05:17:39;;;;;;;38.77;13.37;;;5.60;93.70;;;;;;5058741;28;20675;-74
2021/12/31 05:20:07;;;;;;;28.90;12.13;;;5.50;93.60;;;;;;5064132;28;20197;-76
2021/12/31 05:22:37;;;;;;;41.20;13.33;;;5.50;93.60;;;;;;5049889;28;20195;-74
2021/12/31 05:25:07;;;;;;;30.87;11.37;;;5.50;93.60;;;;;;5065239;28;20606;-77
2021/12/31 05:27:35;;;;;;;25.83;11.60;;;5.40;93.60;;;;;;5062509;28;20195;-74
2021/12/31 05:30:04;;;;;;;25.30;10.90;;;5.30;93.50;;;;;;5058826;28;20195;-74
2021/12/31 05:32:32;;;;;;;35.63;12.53;;;5.30;93.60;;;;;;5059315;28;20194;-75
2021/12/31 05:35:01;;;;;;;32.40;12.37;;;5.20;93.70;;;;;;5056943;28;20221;-75
2021/12/31 05:37:29;;;;;;;26.60;11.87;;;5.20;93.70;;;;;;5062177;28;20190;-74
2021/12/31 05:39:59;;;;;;;31.93;12.47;;;5.10;93.80;;;;;;5060468;28;20269;-75
2021/12/31 05:42:27;;;;;;;27.93;11.83;;;5.10;93.90;;;;;;5059059;28;20190;-75
2021/12/31 05:44:55;;;;;;;31.57;12.97;;;5.10;94.00;;;;;;5058212;28;20280;-76
2021/12/31 05:47:24;;;;;;;26.60;11.10;;;5.00;94.00;;;;;;5060602;28;20202;-78
2021/12/31 05:49:52;;;;;;;35.40;11.40;;;5.10;94.00;;;;;;5061517;28;20190;-73
2021/12/31 05:52:22;;;;;;;24.57;11.33;;;5.10;94.00;;;;;;5061477;28;20633;-75
2021/12/31 05:54:50;;;;;;;24.60;11.20;;;5.10;94.00;;;;;;5063456;28;20729;-74
2021/12/31 05:57:20;;;;;;;23.03;10.80;;;5.10;94.00;;;;;;5053892;28;20190;-73
2021/12/31 05:59:48;;;;;;;32.13;11.20;;;5.10;94.00;;;;;;5063609;28;20218;-74
2021/12/31 06:02:16;;;;;;;28.13;12.43;;;5.20;94.00;;;;;;5062622;28;20250;-74
2021/12/31 06:04:45;;;;;;;28.60;11.47;;;5.20;94.00;;;;;;5054326;28;20192;-74
2021/12/31 06:07:13;;;;;;;25.67;11.13;;;5.20;93.90;;;;;;5052966;28;20199;-74
2021/12/31 06:09:41;;;;;;;25.60;11.63;;;5.20;93.90;;;;;;5060805;28;20194;-74
2021/12/31 06:12:10;;;;;;;25.47;12.00;;;5.30;93.90;;;;;;5060903;28;20194;-74
2021/12/31 06:14:40;;;;;;;29.07;12.33;;;5.30;93.90;;;;;;5058203;28;20195;-74
2021/12/31 06:17:08;;;;;;;31.90;11.90;;;5.40;93.90;;;;;;5062555;28;20199;-74
2021/12/31 06:19:39;;;;;;;34.77;11.70;;;5.40;93.80;;;;;;5064709;28;20225;-73
2021/12/31 06:22:11;;;;;;;27.50;11.53;;;5.40;93.80;;;;;;5056021;28;20213;-73
2021/12/31 06:24:39;;;;;;;28.63;12.13;;;5.40;93.70;;;;;;5066874;28;20183;-73
2021/12/31 06:27:08;;;;;;;32.37;13.10;;;5.50;93.70;;;;;;5057626;28;20203;-74
2021/12/31 06:29:36;;;;;;;28.20;11.97;;;5.50;93.70;;;;;;5062648;28;20193;-74
2021/12/31 06:32:06;;;;;;;26.63;11.83;;;5.50;93.60;;;;;;5049012;28;20198;-74
2021/12/31 06:34:38;;;;;;;26.60;11.77;;;5.50;93.60;;;;;;5056215;28;20222;-74
2021/12/31 06:37:06;;;;;;;28.03;12.17;;;5.50;93.50;;;;;;5052381;28;21017;-74
2021/12/31 06:39:36;;;;;;;24.83;10.97;;;5.50;93.50;;;;;;5060255;28;20898;-74
2021/12/31 06:42:07;;;;;;;26.17;10.83;;;5.60;93.50;;;;;;5062129;28;20214;-74
2021/12/31 06:44:36;;;;;;;30.90;13.50;;;5.50;93.30;;;;;;5061577;28;20194;-74
2021/12/31 06:47:07;;;;;;;21.10;10.37;;;5.50;93.40;;;;;;5063330;28;20783;-74
2021/12/31 06:49:35;;;;;;;23.17;10.97;;;5.60;93.50;;;;;;5060733;28;20452;-74
2021/12/31 06:52:04;;;;;;;22.67;10.57;;;5.60;93.50;;;;;;5057355;28;20234;-73
2021/12/31 06:54:32;;;;;;;27.97;11.47;;;5.70;93.50;;;;;;5064769;28;20225;-73
2021/12/31 06:57:01;;;;;;;32.63;11.23;;;5.70;93.40;;;;;;5062722;28;20193;-74
2021/12/31 06:59:29;;;;;;;28.17;11.73;;;5.80;93.30;;;;;;5061740;28;20210;-74
2021/12/31 07:01:58;;;;;;;23.07;10.23;;;5.70;93.20;;;;;;5059919;28;20572;-74
2021/12/31 07:04:28;;;;;;;25.80;11.13;;;5.70;93.10;;;;;;5047417;28;20984;-74
2021/12/31 07:06:56;;;;;;;29.00;10.60;;;5.70;93.20;;;;;;5048685;28;20210;-74
2021/12/31 07:09:30;;;;;;;24.73;11.77;;;5.80;93.20;;;;;;5050897;28;20186;-74
2021/12/31 07:11:58;;;;;;;24.63;11.10;;;5.80;93.10;;;;;;5059148;28;20193;-75
2021/12/31 07:14:27;;;;;;;24.40;10.87;;;5.80;93.00;;;;;;5055794;28;20198;-74
2021/12/31 07:16:56;;;;;;;25.57;11.07;;;5.80;92.90;;;;;;5061829;28;20187;-74
2021/12/31 07:19:25;;;;;;;21.27;10.93;;;5.80;93.00;;;;;;5049002;28;20222;-73
2021/12/31 07:21:54;;;;;;;24.00;11.80;;;5.80;93.00;;;;;;5056662;28;20202;-74
2021/12/31 07:24:23;;;;;;;24.70;11.87;;;5.90;93.00;;;;;;5056091;28;20222;-76
2021/12/31 07:26:51;;;;;;;24.87;11.27;;;5.90;92.90;;;;;;5052537;28;20218;-74
2021/12/31 07:29:20;;;;;;;26.63;11.07;;;5.90;92.90;;;;;;5056114;28;20190;-74
2021/12/31 07:31:48;;;;;;;23.93;11.27;;;5.90;92.90;;;;;;5061166;28;20256;-74
2021/12/31 07:34:16;;;;;;;25.83;11.67;;;5.90;92.90;;;;;;5053000;28;20892;-75
2021/12/31 07:36:45;;;;;;;26.93;12.63;;;5.90;92.90;;;;;;5060246;28;20186;-74
2021/12/31 07:39:15;;;;;;;28.90;11.47;;;6.00;92.90;;;;;;5056536;28;20923;-74
2021/12/31 07:41:43;;;;;;;21.90;9.97;;;6.00;92.90;;;;;;5061577;28;20192;-75
2021/12/31 07:44:11;;;;;;;26.33;12.95;;;6.00;92.80;;;;;;5061994;28;20432;-75
2021/12/31 07:46:43;;;;;;;23.40;10.63;;;6.00;92.90;;;;;;5056687;28;20204;-75
2021/12/31 07:49:12;;;;;;;23.37;12.53;;;6.00;92.90;;;;;;5057971;28;20191;-76
2021/12/31 07:51:40;;;;;;;21.80;10.70;;;6.10;92.90;;;;;;5057241;28;20199;-75
2021/12/31 07:54:09;;;;;;;23.67;11.03;;;6.10;92.80;;;;;;5068879;28;20206;-75
2021/12/31 07:56:39;;;;;;;22.27;11.70;;;6.10;92.80;;;;;;5061928;28;20191;-74
2021/12/31 07:59:07;;;;;;;22.37;11.30;;;6.10;92.90;;;;;;5052260;28;20223;-75
2021/12/31 08:01:36;;;;;;;23.10;10.63;;;6.20;92.70;;;;;;5060041;28;20184;-75
2021/12/31 08:04:05;;;;;;;19.57;10.47;;;6.20;92.70;;;;;;5045868;28;20188;-75
2021/12/31 08:06:33;;;;;;;18.87;10.10;;;6.20;92.60;;;;;;5060856;28;20207;-75
2021/12/31 08:09:01;;;;;;;20.87;10.60;;;6.20;92.50;;;;;;5053764;28;20556;-75
2021/12/31 08:11:30;;;;;;;25.43;11.47;;;6.20;92.40;;;;;;5061927;28;20203;-76
2021/12/31 08:14:00;;;;;;;22.27;11.37;;;6.20;92.40;;;;;;5054184;28;20474;-74
2021/12/31 08:16:28;;;;;;;20.57;9.67;;;6.20;92.40;;;;;;5044051;28;20445;-74
2021/12/31 08:18:56;;;;;;;18.30;9.93;;;6.20;92.20;;;;;;5044744;28;20201;-75
2021/12/31 08:21:25;;;;;;;18.43;9.10;;;6.30;92.40;;;;;;5043378;28;20209;-75
2021/12/31 08:23:53;;;;;;;18.13;9.30;;;6.40;92.40;;;;;;5043895;28;20197;-76
2021/12/31 08:26:21;;;;;;;20.33;10.30;;;6.40;92.20;;;;;;5046090;28;20737;-75
2021/12/31 08:28:50;;;;;;;19.97;10.53;;;6.40;92.10;;;;;;5056522;28;20194;-78
2021/12/31 08:31:19;;;;;;;22.23;10.40;;;6.40;91.80;;;;;;5051945;28;20211;-75
2021/12/31 08:33:48;;;;;;;22.57;10.23;;;6.40;91.80;;;;;;5059300;28;20692;-74
2021/12/31 08:36:16;;;;;;;20.13;10.33;;;6.40;91.80;;;;;;5062066;28;20187;-76
2021/12/31 08:38:44;;;;;;;21.20;11.10;;;6.40;91.80;;;;;;5063620;28;20192;-75
2021/12/31 08:41:13;;;;;;;21.57;10.73;;;6.30;91.80;;;;;;5063729;28;20218;-74
2021/12/31 08:44:02;;;;;;;21.50;10.73;;;6.30;91.80;;;;;;5062826;28;20610;-75
2021/12/31 08:46:32;;;;;;;21.37;11.77;;;6.40;91.90;;;;;;5062556;28;20195;-75
2021/12/31 08:49:00;;;;;;;25.90;11.77;;;6.40;92.00;;;;;;5062217;28;20214;-74
2021/12/31 08:51:28;;;;;;;21.40;10.50;;;6.40;92.00;;;;;;5048626;28;20324;-76
2021/12/31 08:53:57;;;;;;;18.13;9.83;;;6.50;92.00;;;;;;5051396;28;20195;-74
2021/12/31 08:56:25;;;;;;;23.23;10.70;;;6.40;91.90;;;;;;5053069;28;20699;-74
2021/12/31 08:58:54;;;;;;;31.53;15.90;;;6.40;91.80;;;;;;5043836;28;20197;-75
2021/12/31 09:01:22;;;;;;;25.27;12.17;;;6.40;92.00;;;;;;5054520;28;20206;-80
2021/12/31 09:03:52;;;;;;;22.60;11.00;;;6.40;92.00;;;;;;5066595;28;20196;-76
2021/12/31 09:06:20;;;;;;;21.80;12.03;;;6.40;92.10;;;;;;5063409;28;20187;-76
2021/12/31 09:08:49;;;;;;;24.57;13.47;;;6.40;92.20;;;;;;5065788;28;20206;-76
2021/12/31 09:11:18;;;;;;;25.67;12.47;;;6.50;92.30;;;;;;5066219;28;20192;-75
2021/12/31 09:13:47;;;;;;;21.67;11.33;;;6.50;92.20;;;;;;5063697;28;20236;-75
2021/12/31 09:16:16;;;;;;;24.43;10.97;;;6.60;92.20;;;;;;5064513;28;20200;-76
2021/12/31 09:18:45;;;;;;;20.83;10.63;;;6.70;92.10;;;;;;5064638;28;20196;-77
2021/12/31 09:21:17;;;;;;;25.40;12.60;;;6.80;92.10;;;;;;5071445;28;20224;-75
2021/12/31 09:23:46;;;;;;;26.33;14.07;;;6.80;92.10;;;;;;5065448;28;20185;-76
2021/12/31 09:26:16;;;;;;;29.93;14.73;;;6.80;91.90;;;;;;5058288;28;20188;-76
2021/12/31 09:28:44;;;;;;;24.10;12.23;;;6.80;91.90;;;;;;5065792;28;20193;-75
2021/12/31 09:31:14;;;;;;;25.30;12.90;;;6.80;91.80;;;;;;5065964;28;20201;-76
2021/12/31 09:33:42;;;;;;;20.17;9.40;;;6.80;91.80;;;;;;5065294;28;20245;-76
2021/12/31 09:36:10;;;;;;;22.23;10.53;;;6.80;91.60;;;;;;5066059;28;20287;-76
2021/12/31 09:38:40;;;;;;;21.17;10.77;;;6.80;92.00;;;;;;5061269;28;20204;-76
2021/12/31 09:41:08;;;;;;;22.13;12.40;;;6.80;91.80;;;;;;5065211;28;20223;-76
2021/12/31 09:43:38;;;;;;;21.33;11.80;;;6.80;91.90;;;;;;5051078;28;20197;-77
2021/12/31 09:46:07;;;;;;;22.07;12.50;;;6.80;91.80;;;;;;5049198;28;20557;-76
2021/12/31 09:48:36;;;;;;;21.20;10.53;;;6.90;91.90;;;;;;5053078;28;20193;-76
2021/12/31 09:51:08;;;;;;;26.47;12.53;;;6.90;91.90;;;;;;5066654;28;20553;-76
2021/12/31 09:53:37;;;;;;;25.23;12.30;;;6.90;92.00;;;;;;5057567;28;20199;-76
2021/12/31 09:56:08;;;;;;;23.47;11.93;;;7.00;92.00;;;;;;5060592;28;20279;-76
2021/12/31 09:58:37;;;;;;;23.97;11.87;;;6.90;91.80;;;;;;5064160;28;20309;-75
2021/12/31 10:01:08;;;;;;;27.50;12.97;;;6.90;92.20;;;;;;5054545;28;20924;-76
2021/12/31 10:03:38;;;;;;;28.57;13.47;;;6.90;91.80;;;;;;5054762;28;20456;-76
2021/12/31 10:06:08;;;;;;;26.30;13.03;;;6.90;91.80;;;;;;5056331;28;20429;-75
2021/12/31 10:08:42;;;;;;;29.57;14.70;;;7.00;91.80;;;;;;5068405;28;20654;-76
2021/12/31 10:11:14;;;;;;;30.73;14.43;;;7.00;91.90;;;;;;5053350;28;20185;-77
2021/12/31 10:13:43;;;;;;;29.50;14.23;;;7.00;91.70;;;;;;5062365;28;20587;-77
2021/12/31 10:16:25;;;;;;;27.27;14.37;;;6.90;91.70;;;;;;5062071;28;20224;-76
2021/12/31 10:19:07;;;;;;;31.03;15.40;;;7.00;91.80;;;;;;5069964;28;20279;-77
2021/12/31 10:21:38;;;;;;;30.53;14.77;;;7.00;91.80;;;;;;5058943;28;20225;-76
2021/12/31 10:24:25;;;;;;;29.60;14.63;;;7.10;91.90;;;;;;5058444;28;20199;-76
2021/12/31 10:26:58;;;;;;;24.83;13.07;;;7.10;91.90;;;;;;5056502;28;20673;-78
2021/12/31 10:29:27;;;;;;;23.67;12.70;;;7.10;91.90;;;;;;5045019;28;20317;-76
2021/12/31 10:31:57;;;;;;;21.67;11.00;;;7.20;91.90;;;;;;5061186;28;20201;-77
2021/12/31 10:34:31;;;;;;;19.97;10.50;;;7.30;91.80;;;;;;5063255;28;20228;-77
2021/12/31 10:37:00;;;;;;;21.37;11.17;;;7.30;91.90;;;;;;5058395;28;20198;-77
2021/12/31 10:39:32;;;;;;;18.63;11.00;;;7.40;91.80;;;;;;5067660;28;20642;-77
2021/12/31 10:42:07;;;;;;;23.63;12.60;;;7.40;91.70;;;;;;5063250;28;20296;-75
2021/12/31 10:44:43;;;;;;;21.10;11.87;;;7.40;91.60;;;;;;5063587;28;20553;-76
2021/12/31 10:47:13;;;;;;;21.47;11.67;;;7.50;91.50;;;;;;5068125;28;20244;-75
2021/12/31 10:50:13;;;;;;;19.30;11.73;;;7.50;91.50;;;;;;5062866;28;20194;-75
2021/12/31 10:52:48;;;;;;;18.93;11.30;;;7.60;91.60;;;;;;5058780;28;20194;-75
2021/12/31 10:55:22;;;;;;;16.73;10.40;;;7.70;91.20;;;;;;5064350;28;20189;-75
2021/12/31 10:57:54;;;;;;;19.03;10.33;;;7.70;91.20;;;;;;5062850;28;20276;-75
2021/12/31 11:00:24;;;;;;;21.77;12.10;;;7.80;91.00;;;;;;5064165;28;20178;-75
2021/12/31 11:02:52;;;;;;;18.47;10.63;;;7.80;90.80;;;;;;5064064;28;20193;-75
2021/12/31 11:05:23;;;;;;;21.60;10.50;;;7.80;90.90;;;;;;5060289;28;20196;-75
2021/12/31 11:07:52;;;;;;;21.33;11.40;;;7.90;90.90;;;;;;5060133;28;20201;-76
2021/12/31 11:10:41;;;;;;;22.70;10.83;;;8.00;90.90;;;;;;5062145;28;20193;-75
2021/12/31 11:13:18;;;;;;;23.93;12.60;;;8.10;90.80;;;;;;5054660;28;20216;-76
2021/12/31 11:15:50;;;;;;;28.27;13.47;;;8.10;90.70;;;;;;5064514;28;20204;-76
2021/12/31 11:18:19;;;;;;;32.33;15.70;;;8.20;90.50;;;;;;5060812;28;20789;-77
2021/12/31 11:20:48;;;;;;;29.63;14.30;;;8.20;90.40;;;;;;5063136;28;20233;-76
2021/12/31 11:23:17;;;;;;;25.70;14.03;;;8.30;90.40;;;;;;5057388;28;20665;-77
2021/12/31 11:25:52;;;;;;;23.23;12.37;;;8.30;90.40;;;;;;5062993;28;20221;-77
2021/12/31 11:28:27;;;;;;;24.67;13.20;;;8.30;90.30;;;;;;5063854;28;20558;-77
2021/12/31 11:30:57;;;;;;;23.40;11.17;;;8.40;90.40;;;;;;5063411;28;20265;-78
2021/12/31 11:33:28;;;;;;;22.60;11.80;;;8.40;90.30;;;;;;5075221;28;20928;-76
2021/12/31 11:36:02;;;;;;;21.13;10.93;;;8.40;90.10;;;;;;5060177;28;20285;-77
2021/12/31 11:38:50;;;;;;;24.37;11.67;;;8.40;90.10;;;;;;5064310;28;20186;-76
2021/12/31 11:41:38;;;;;;;20.63;11.27;;;8.40;90.00;;;;;;5051651;28;20665;-77
2021/12/31 11:44:10;;;;;;;21.07;11.50;;;8.40;90.00;;;;;;5053066;28;20606;-77
2021/12/31 11:46:40;;;;;;;21.07;11.10;;;8.30;90.10;;;;;;5053252;28;20179;-76
2021/12/31 11:49:23;;;;;;;25.70;12.27;;;8.40;90.30;;;;;;5051384;28;20195;-76
2021/12/31 11:52:00;;;;;;;23.60;12.53;;;8.40;90.30;;;;;;5049794;28;20245;-77
2021/12/31 11:54:30;;;;;;;25.67;13.45;;;8.40;90.40;;;;;;5058523;28;20444;-77
2021/12/31 11:57:09;;;;;;;20.90;12.40;;;8.40;90.40;;;;;;5051556;28;20190;-77
2021/12/31 11:59:59;;;;;;;25.83;12.33;;;8.50;90.50;;;;;;5058351;28;20182;-77
2021/12/31 12:02:45;;;;;;;20.57;11.30;;;8.50;90.40;;;;;;5054677;28;20210;-76
2021/12/31 12:05:15;;;;;;;21.83;12.13;;;8.50;90.30;;;;;;5072705;28;20186;-76
2021/12/31 12:07:47;;;;;;;28.13;13.80;;;8.50;90.40;;;;;;5083487;28;20656;-77
2021/12/31 12:10:24;;;;;;;27.03;13.00;;;8.60;90.50;;;;;;5060803;28;20189;-77
2021/12/31 12:12:58;;;;;;;25.87;13.13;;;8.60;90.50;;;;;;5051492;28;20187;-77
2021/12/31 12:15:31;;;;;;;27.47;13.47;;;8.60;90.40;;;;;;5056242;28;20652;-77
2021/12/31 12:18:05;;;;;;;25.00;13.48;;;8.50;90.30;;;;;;5060123;28;20434;-77
2021/12/31 12:20:42;;;;;;;21.33;11.93;;;8.60;90.60;;;;;;5076691;28;20182;-76
2021/12/31 12:23:23;;;;;;;26.77;13.13;;;8.60;90.50;;;;;;5062000;28;20213;-77
2021/12/31 12:25:52;;;;;;;22.47;12.13;;;8.60;90.60;;;;;;5070251;28;20178;-77
2021/12/31 12:28:21;;;;;;;29.37;13.40;;;8.60;90.40;;;;;;5055753;28;20195;-76
2021/12/31 12:31:04;;;;;;;27.60;13.23;;;8.60;90.40;;;;;;5056038;28;20205;-77
2021/12/31 12:33:33;;;;;;;23.53;12.03;;;8.60;90.50;;;;;;5059124;28;20210;-76
2021/12/31 12:36:02;;;;;;;29.47;14.27;;;8.60;90.40;;;;;;5063579;28;20201;-78
2021/12/31 12:38:33;;;;;;;27.90;12.33;;;8.60;90.40;;;;;;5064409;28;20210;-78
2021/12/31 12:41:08;;;;;;;25.20;12.77;;;8.60;90.50;;;;;;5064830;28;20656;-77
2021/12/31 12:43:38;;;;;;;24.03;12.13;;;8.60;90.50;;;;;;5055872;28;20188;-76
2021/12/31 12:46:11;;;;;;;24.97;12.40;;;8.60;90.50;;;;;;5057876;28;20195;-76
2021/12/31 12:48:42;;;;;;;30.93;13.27;;;8.60;90.50;;;;;;5052813;28;20176;-76
2021/12/31 12:51:13;;;;;;;35.37;15.63;;;8.60;90.50;;;;;;5051272;28;20202;-76
2021/12/31 12:53:43;;;;;;;29.37;14.07;;;8.60;90.60;;;;;;5056257;28;20198;-76
2021/12/31 12:56:13;;;;;;;30.60;14.63;;;8.70;90.70;;;;;;5061638;28;20194;-76
2021/12/31 12:58:48;;;;;;;32.27;14.23;;;8.60;90.60;;;;;;5054180;28;20194;-76